Tiempo atmosférico en la estación meteorológica de El Pedregal, Guadalajara (1185 m.)



Fecha
DESCASC
Temp. máxima en grados centígrados (hora)
DESCASC
Temp. mínima en grados centígrados (hora)
DESCASC
Temp. media en grados centígrados
DESCASC
Racha de viento máxima en m/sg (hora)
DESCASC
Velocidad máxima media en intervalos de 10 minutos(hora)
DESCASC
Precipitaciones diarias en mm
DESCASC
Precipitaciones de 00:00 a 06:00 en mm
DESCASC
Precipitaciones de 06:00 a 12:00 en mm
DESCASC
Precipitaciones de 12:00 a 18:00 en mm
DESCASC
Precipitaciones de 18:00 a 24:00 en mm
DESCASC
16-01-2020 11.4 (11:20) 3.9 (20:00) 7.6 10 (13:30) 5.83 (09:40) 0 0 0 0 0
15-01-2020 10.3 (14:00) 1 (03:30) 5.7 13.61 (14:20) 8.06 (14:40) 0 0 0 0 0
14-01-2020 12.9 (14:50) -3.3 (08:10) 4.8 11.67 (00:10) 8.06 (00:20) 0 0 0 0 0
13-01-2020 11.1 (14:10) -4.8 (03:10) 3.2 10.83 (23:59) 7.5 (23:59) 0 0 0 0 0
12-01-2020 13 (14:10) -3.1 (-00:0) 5 7.22 (06:50) 5 (06:50) 0 0 0 0 0
11-01-2020 10.3 (14:40) -3.7 (-00:0) 3.3 5 (00:20) 2.78 (00:20) 0 0 0 0 0
10-01-2020 6.1 (02:20) -0.2 (00:00) 2.9 10.83 (13:20) 6.39 (13:30) 0 0 0 0 0
09-01-2020 14.6 (15:40) -1 (-00:0) 6.8 7.22 (13:30) 4.17 (20:20) 0 0 0 0 0
08-01-2020 13.1 (12:00) 0.9 (00:00) 7 5.83 (03:50) 4.17 (01:00) 0 0 0 0 0
07-01-2020 15.1 (15:20) 0.4 (00:00) 7.8 6.94 (14:40) 4.44 (13:40) 0 0 0 0 0
06-01-2020 14.6 (15:20) -1.3 (-00:0) 6.7 8.06 (15:10) 4.17 (12:00) 0 0 0 0 0
05-01-2020 16.5 (14:50) -2.8 (-00:0) 6.9 4.17 (05:50) 3.33 (05:50) 0 0 0 0 0
04-01-2020 5.5 (15:50) -2.4 (-00:0) 1.5 6.67 (13:50) 2.78 (12:10) 0 0 0 0 0
03-01-2020 10.4 (13:00) -0.5 (-00:0) 4.9 5.83 (08:10) 4.17 (08:10) 0 0 0 0 0
02-01-2020 18.4 (12:40) -1.3 (-00:0) 8.5 5.83 (15:30) 3.61 (22:30) 0 0 0 0 0
01-01-2020 17.3 (15:20) -0.3 (00:00) 8.5 4.44 (10:40) 3.33 (23:10) 0 0 0 0 0
31-12-2019 15.4 (13:30) 0 (00:00) 7.7 4.44 (01:30) 3.33 (01:30) 0 0 0 0 0
30-12-2019 -- (--) -- (--) -- -- (--) -- (--) -- 0 0 -- 0
29-12-2019 16.2 (13:30) -0.8 (-00:0) 7.7 4.72 (20:50) 3.61 (20:50) 0 0 0 0 0
28-12-2019 17.8 (15:40) -1 (-00:0) 8.4 7.22 (07:50) 5.28 (08:00) 0 0 0 0 0
27-12-2019 18 (14:40) -3 (-00:0) 7.5 4.72 (23:10) 3.61 (20:20) 0 0 0 0 0
26-12-2019 12.8 (14:00) -0.5 (-00:0) 6.2 7.78 (09:40) 5.28 (09:00) 0 0 0 0 0
25-12-2019 19.7 (14:10) 2.1 (00:00) 10.9 5.28 (22:40) 4.17 (22:40) 0 0 0 0 0
24-12-2019 14.6 (13:30) 3.1 (00:00) 8.9 8.61 (13:20) 5.28 (13:40) 0 0 0 0 0
23-12-2019 11.9 (15:50) 1.3 (00:00) 6.6 12.78 (00:20) 8.06 (00:10) 0 0 0 0 0
22-12-2019 10.7 (14:20) 5.7 (00:00) 8.2 23.33 (01:00) 12.78 (01:00) 2.4 2.4 0 0 0
21-12-2019 14.8 (14:30) 6.6 (00:00) 10.7 27.22 (15:30) 15 (15:30) 1 0 0.6 0.2 0.2
20-12-2019 11.5 (00:30) 7.6 (00:00) 9.5 27.22 (02:40) 16.39 (01:20) 24.4 9 8.8 2 4.6
19-12-2019 12 (15:30) 3.9 (01:10) 8 21.39 (23:50) 12.78 (23:50) 0 0 0 0 0

Gráficas

Temp. máximas Temp. mínimas Temp. medias Precipitaciones Rachas de viento máximas Velocidades máximas media en intervalos de 10 minutos

Datos horarios

Fecha y hora oficial Temperatura (ºC) Velocidad del viento (km/h) Dirección del viento Racha (km/h) Dirección de racha Precipitación (mm) Presión (hPa) Tendencia (hPa) Humedad (%)
2020-01-17 23:00:00 1 10 Oeste 16 Oeste 0 -- -- 81
2020-01-17 22:00:00 1.2 11 Oeste 14 Oeste 0 -- -- 78
2020-01-17 21:00:00 2.3 7 Oeste 23 Oeste 0 -- -- 74
2020-01-17 20:00:00 3 5 Oeste 13 Noroeste 0 -- -- 74
2020-01-17 19:00:00 5.1 12 Noroeste 21 Noroeste 0 -- -- 68
2020-01-17 18:00:00 6.3 12 Noroeste 38 Oeste 0 -- -- 64
2020-01-17 17:00:00 8 24 Oeste 39 Oeste 0 -- -- 60
2020-01-17 16:00:00 6.9 23 Oeste 41 Oeste 0 -- -- 65
2020-01-17 15:00:00 7.6 22 Oeste 37 Noroeste 0 -- -- 72
2020-01-17 14:00:00 5.4 23 Oeste 38 Oeste 0 -- -- 84
2020-01-17 13:00:00 6 18 Oeste 38 Oeste 0 -- -- 75
2020-01-17 12:00:00 6.3 22 Oeste 42 Oeste 0 -- -- 72
2020-01-17 11:00:00 5.4 19 Oeste 37 Oeste 0 -- -- 73
2020-01-17 10:00:00 6 10 Sudoeste 24 Sudoeste 0 -- -- 70
2020-01-17 09:00:00 3.9 8 Oeste 30 Oeste 0 -- -- 78
2020-01-17 08:00:00 3.8 15 Oeste 29 Sudoeste 0 -- -- 78
2020-01-17 07:00:00 3.8 13 Oeste 33 Oeste 0 -- -- 76
2020-01-17 06:00:00 4.6 14 Oeste 28 Oeste 0 -- -- 72
2020-01-17 05:00:00 5.2 14 Sudoeste 30 Sudoeste 0 -- -- 66
2020-01-17 04:00:00 5.1 12 Sudoeste 21 Sudoeste 0 -- -- 64
2020-01-17 03:00:00 5.6 7 Sudoeste 28 Oeste 0 -- -- 62
2020-01-17 02:00:00 6.5 18 Oeste 39 Oeste 0 -- -- 60
2020-01-17 01:00:00 7.3 15 Sudoeste 30 Sudoeste 0 -- -- 55
2020-01-17 00:00:00 6.1 3 Norte 16 Sudoeste 0 -- -- 60
2020-01-16 23:00:00 6.2 6 Sur 12 Sur 0 -- -- 61
2020-01-16 22:00:00 6.1 6 Sur 15 Sur 0 -- -- 63
2020-01-16 21:00:00 5.5 10 Sur 17 Sudoeste 0 -- -- 72
2020-01-16 20:00:00 3.9 2 Este 8 Sudoeste 0 -- -- 84
2020-01-16 19:00:00 5 7 Sur 23 Sudoeste 0 -- -- 78
2020-01-16 18:00:00 8.7 13 Sudoeste 28 Sudoeste 0 -- -- 64
2020-01-16 17:00:00 9.9 13 Sudoeste 22 Sudoeste 0 -- -- 61
2020-01-16 16:00:00 10.1 11 Sudoeste 27 Oeste 0 -- -- 63
2020-01-16 15:00:00 10.3 13 Oeste 29 Oeste 0 -- -- 66
2020-01-16 14:00:00 10.5 16 Oeste 36 Oeste 0 -- -- 62
2020-01-16 13:00:00 10 15 Oeste 25 Sudoeste 0 -- -- 63
2020-01-16 12:00:00 10.6 15 Oeste 27 Sudoeste 0 -- -- 61
2020-01-16 11:00:00 10.6 11 Sudoeste 25 Sudoeste 0 -- -- 60
2020-01-16 10:00:00 8.4 18 Sudoeste 29 Sudoeste 0 -- -- 68
2020-01-16 09:00:00 6.2 15 Sudoeste 23 Sudoeste 0 -- -- 79
2020-01-16 08:00:00 6 12 Oeste 24 Oeste 0 -- -- 82
2020-01-16 07:00:00 5.8 13 Sudoeste 29 Sudoeste 0 -- -- 84
2020-01-16 06:00:00 5.4 12 Sudoeste 23 Sudoeste 0 -- -- 88
2020-01-16 05:00:00 5.4 12 Oeste 26 Oeste 0 -- -- 86
2020-01-16 04:00:00 5.3 6 Oeste 31 Sudoeste 0 -- -- 85
2020-01-16 03:00:00 6.3 15 Sudoeste 28 Sudoeste 0 -- -- 82
2020-01-16 02:00:00 5.8 12 Sudoeste 30 Sudoeste 0 -- -- 85
2020-01-16 01:00:00 6.2 12 Sudoeste 28 Sudoeste 0 -- -- 84
2020-01-16 00:00:00 6.4 9 Oeste 22 Sudoeste 0 -- -- 83
2020-01-15 23:00:00 6.3 17 Oeste 29 Oeste 0 -- -- 83
2020-01-15 22:00:00 6.1 9 Sudoeste 31 Oeste 0 -- -- 84
2020-01-15 21:00:00 5.7 20 Oeste 32 Oeste 0 -- -- 84
2020-01-15 20:00:00 6.3 15 Oeste 39 Oeste 0 -- -- 82
2020-01-15 19:00:00 6.5 13 Oeste 28 Oeste 0 -- -- 79
2020-01-15 18:00:00 6.8 14 Oeste 22 Oeste 0 -- -- 75
2020-01-15 17:00:00 8.3 12 Oeste 43 Oeste 0 -- -- 67
2020-01-15 16:00:00 9.2 25 Oeste 44 Oeste 0 -- -- 63
2020-01-15 15:00:00 10 24 Oeste 49 Oeste 0 -- -- 60
2020-01-15 14:00:00 10.3 23 Oeste 48 Oeste 0 -- -- 56
2020-01-15 13:00:00 8.9 20 Oeste 40 Sudoeste 0 -- -- 57
2020-01-15 12:00:00 7.9 18 Oeste 39 Oeste 0 -- -- 57
2020-01-15 11:00:00 6.1 14 Oeste 29 Sudoeste 0 -- -- 64
2020-01-15 10:00:00 5.3 11 Oeste 28 Oeste 0 -- -- 72
2020-01-15 09:00:00 2.2 6 Sudoeste 17 Sudoeste 0 -- -- 84
2020-01-15 08:00:00 2.4 2 Noroeste 17 Oeste 0 -- -- 84
2020-01-15 07:00:00 3.9 10 Oeste 22 Oeste 0 -- -- 82
2020-01-15 06:00:00 3.8 13 Oeste 37 Sudoeste 0 -- -- 80
2020-01-15 05:00:00 4.5 14 Oeste 27 Sudoeste 0 -- -- 75
2020-01-15 04:00:00 3.9 8 Oeste 23 Oeste 0 -- -- 79
2020-01-15 03:00:00 1.2 2 Este 10 Oeste 0 -- -- 87
2020-01-15 02:00:00 2 10 Oeste 26 Oeste 0 -- -- 84
2020-01-15 01:00:00 1.1 10 Sudoeste 21 Sudoeste 0 -- -- 83
2020-01-15 00:00:00 2.5 18 Sudoeste 32 Sudoeste 0 -- -- 76
2020-01-14 23:00:00 2.2 14 Oeste 38 Oeste 0 -- -- 75
2020-01-14 22:00:00 4.1 20 Sudoeste 32 Sudoeste 0 -- -- 53
2020-01-14 21:00:00 2.9 5 Sudoeste 16 Oeste 0 -- -- 38
2020-01-14 20:00:00 3.2 11 Oeste 20 Oeste 0 -- -- 47
2020-01-14 19:00:00 3.4 9 Oeste 15 Oeste 0 -- -- 48
2020-01-14 18:00:00 6.6 12 Oeste 22 Oeste 0 -- -- 42
2020-01-14 17:00:00 10.5 10 Oeste 18 Oeste 0 -- -- 37
2020-01-14 16:00:00 12.3 8 Noroeste 17 Oeste 0 -- -- 33
2020-01-14 15:00:00 12.7 7 Oeste 16 Oeste 0 -- -- 35
2020-01-14 14:00:00 10.9 11 Oeste 17 Oeste 0 -- -- 38
2020-01-14 13:00:00 9.9 8 Oeste 16 Oeste 0 -- -- 38
2020-01-14 12:00:00 8.7 7 Oeste 13 Oeste 0 -- -- 40
2020-01-14 11:00:00 8.4 3 Oeste 20 Oeste 0 -- -- 34
2020-01-14 10:00:00 3.5 9 Oeste 17 Sudoeste 0 -- -- 40
2020-01-14 09:00:00 -1.2 3 Sudoeste 12 Sudoeste 0 -- -- 60
2020-01-14 08:00:00 -2.6 4 Oeste 10 Sudoeste 0 -- -- 72
2020-01-14 07:00:00 -2 2 Nordeste 12 Oeste 0 -- -- 78
2020-01-14 06:00:00 -1.1 0 Calma 19 Sudoeste 0 -- -- 69
2020-01-14 05:00:00 0.6 12 Oeste 24 Oeste 0 -- -- 68
2020-01-14 04:00:00 0.4 4 Oeste 31 Sudoeste 0 -- -- 71
2020-01-14 03:00:00 2 24 Sudoeste 38 Sudoeste 0 -- -- 63
2020-01-14 02:00:00 1.7 20 Oeste 32 Oeste 0 -- -- 59
2020-01-14 01:00:00 2.2 19 Oeste 42 Sudoeste 0 -- -- 58
2020-01-14 00:00:00 2.8 27 Sudoeste 39 Sudoeste 0 -- -- 48
2020-01-13 23:00:00 2.4 24 Oeste 37 Oeste 0 -- -- 38
2020-01-13 22:00:00 1.5 17 Oeste 26 Oeste 0 -- -- 40
2020-01-13 21:00:00 1.7 9 Oeste 24 Noroeste 0 -- -- 35
2020-01-13 20:00:00 2.7 9 Oeste 18 Oeste 0 -- -- 36
2020-01-13 19:00:00 3.7 12 Oeste 22 Sudoeste 0 -- -- 37
2020-01-13 18:00:00 6.1 17 Oeste 23 Oeste 0 -- -- 30
2020-01-13 17:00:00 8 8 Oeste 24 Noroeste 0 -- -- 31
2020-01-13 16:00:00 9.4 15 Noroeste 27 Oeste 0 -- -- 27
2020-01-13 15:00:00 10.8 14 Oeste 26 Oeste 0 -- -- 30
2020-01-13 14:00:00 10.8 17 Oeste 26 Oeste 0 -- -- 29
2020-01-13 13:00:00 10.2 14 Oeste 21 Oeste 0 -- -- 29
2020-01-13 12:00:00 9.2 12 Oeste 18 Oeste 0 -- -- 29
2020-01-13 11:00:00 8.5 4 Oeste 12 Oeste 0 -- -- 30
2020-01-13 10:00:00 5.6 9 Oeste 14 Oeste 0 -- -- 33
2020-01-13 09:00:00 0.2 0 Calma 12 Oeste 0 -- -- 42
2020-01-13 08:00:00 -1.1 0 Calma 17 Oeste 0 -- -- 46
2020-01-13 07:00:00 -0.4 10 Oeste 13 Sudoeste 0 -- -- 46
2020-01-13 06:00:00 -1.6 8 Oeste 15 Oeste 0 -- -- 53
2020-01-13 05:00:00 -2.3 6 Oeste 14 Oeste 0 -- -- 55
2020-01-13 04:00:00 -3.6 8 Sudoeste 12 Sudoeste 0 -- -- 62
2020-01-13 03:00:00 -4.2 5 Oeste 10 Oeste 0 -- -- 64
2020-01-13 02:00:00 -3.5 0 Calma 4 Oeste 0 -- -- 62
2020-01-13 01:00:00 -3.8 0 Calma 6 Oeste 0 -- -- 65
2020-01-13 00:00:00 -3.1 4 Sudoeste 9 Oeste 0 -- -- 63
2020-01-12 23:00:00 -1.4 5 Oeste 16 Oeste 0 -- -- 56
2020-01-12 22:00:00 -0.9 9 Oeste 12 Oeste 0 -- -- 55
2020-01-12 21:00:00 -1.7 0 Calma 11 Sudoeste 0 -- -- 64
2020-01-12 20:00:00 -1.9 9 Oeste 11 Oeste 0 -- -- 65
2020-01-12 19:00:00 -1.4 0 Calma 6 Oeste 0 -- -- 63
2020-01-12 18:00:00 2.3 2 Sudoeste 9 Sur 0 -- -- 50
2020-01-12 17:00:00 8.3 4 Sudeste 13 Este 0 -- -- 38
2020-01-12 16:00:00 8.9 11 Este 17 Este 0 -- -- 37
2020-01-12 15:00:00 10.8 11 Este 16 Sudeste 0 -- -- 34
2020-01-12 14:00:00 12.1 7 Nordeste 13 Oeste 0 -- -- 19
2020-01-12 13:00:00 9.4 6 Oeste 17 Oeste 0 -- -- 28
2020-01-12 12:00:00 8 9 Oeste 19 Oeste 0 -- -- 27
2020-01-12 11:00:00 6.1 13 Oeste 23 Oeste 0 -- -- 29
2020-01-12 10:00:00 4.4 13 Oeste 24 Sudoeste 0 -- -- 30
2020-01-12 09:00:00 0.9 11 Oeste 22 Oeste 0 -- -- 45
2020-01-12 08:00:00 -0.6 15 Oeste 23 Oeste 0 -- -- 55
2020-01-12 07:00:00 -0.9 15 Oeste 26 Oeste 0 -- -- 55
2020-01-12 06:00:00 -2.1 6 Oeste 13 Noroeste 0 -- -- 63
2020-01-12 05:00:00 -1.5 8 Oeste 14 Oeste 0 -- -- 61
2020-01-12 04:00:00 -0.2 11 Oeste 18 Oeste 0 -- -- 59
2020-01-12 03:00:00 0.3 8 Oeste 14 Oeste 0 -- -- 58
2020-01-12 02:00:00 0.1 11 Oeste 15 Oeste 0 -- -- 59
2020-01-12 01:00:00 -2 6 Oeste 17 Oeste 0 -- -- 68
2020-01-12 00:00:00 -0.5 8 Oeste 15 Oeste 0 -- -- 62
2020-01-11 23:00:00 0.1 9 Oeste 16 Oeste 0 -- -- 60
2020-01-11 22:00:00 0.9 8 Oeste 12 Oeste 0 -- -- 59
2020-01-11 21:00:00 -1 4 Oeste 10 Oeste 0 -- -- 66
2020-01-11 20:00:00 -0.8 8 Oeste 13 Oeste 0 -- -- 68
2020-01-11 19:00:00 -0.5 7 Oeste 9 Oeste 0 -- -- 65
2020-01-11 18:00:00 2.1 6 Oeste 11 Oeste 0 -- -- 52
2020-01-11 17:00:00 9.6 7 Oeste 14 Oeste 0 -- -- 29
2020-01-11 16:00:00 9.8 8 Oeste 13 Oeste 0 -- -- 31
2020-01-11 15:00:00 10.2 5 Oeste 13 Oeste 0 -- -- 34
2020-01-11 14:00:00 9.3 8 Oeste 15 Oeste 0 -- -- 37
2020-01-11 13:00:00 9.4 3 Este 10 Nordeste 0 -- -- 47
2020-01-11 12:00:00 7.1 3 Sur 13 Sudoeste 0 -- -- 52
2020-01-11 11:00:00 3.2 9 Oeste 16 Oeste 0 -- -- 78
2020-01-11 10:00:00 1.5 8 Oeste 13 Oeste 0 -- -- 82
2020-01-11 09:00:00 -2.8 5 Sudoeste 17 Sudoeste 0 -- -- 92
2020-01-11 08:00:00 -3.4 8 Oeste 11 Oeste 0 -- -- 93
2020-01-11 07:00:00 -3.6 6 Oeste 12 Sudoeste 0 -- -- 94
2020-01-11 06:00:00 -2.8 6 Oeste 13 Oeste 0 -- -- 93
2020-01-11 05:00:00 -2 6 Oeste 10 Oeste 0 -- -- 94
2020-01-11 04:00:00 -1.5 6 Oeste 13 Oeste 0 -- -- 93
2020-01-11 03:00:00 -1.7 3 Oeste 13 Oeste 0 -- -- 93
2020-01-11 02:00:00 -1.9 8 Oeste 12 Oeste 0 -- -- 91
2020-01-11 01:00:00 0.7 5 Oeste 18 Oeste 0 -- -- 86
2020-01-11 00:00:00 1.3 3 Noroeste 11 Nordeste 0 -- -- 86
2020-01-10 23:00:00 -0.2 5 Noroeste 13 Este 0 -- -- 87
2020-01-10 22:00:00 1.3 6 Norte 21 Norte 0 -- -- 82
2020-01-10 21:00:00 1.4 5 Nordeste 13 Oeste 0 -- -- 83
2020-01-10 20:00:00 1.4 9 Nordeste 20 Nordeste 0 -- -- 81
2020-01-10 19:00:00 2.7 7 Norte 31 Norte 0 -- -- 77
2020-01-10 18:00:00 3.7 12 Norte 26 Norte 0 -- -- 72
2020-01-10 17:00:00 4.2 15 Norte 31 Norte 0 -- -- 68
2020-01-10 16:00:00 5 12 Norte 29 Norte 0 -- -- 65
2020-01-10 15:00:00 4.9 15 Norte 32 Norte 0 -- -- 67
2020-01-10 14:00:00 5 16 Norte 39 Norte 0 -- -- 66
2020-01-10 13:00:00 4.6 18 Norte 34 Nordeste 0 -- -- 68
2020-01-10 12:00:00 4.5 15 Norte 26 Norte 0 -- -- 71
2020-01-10 11:00:00 3.3 11 Noroeste 21 Noroeste 0 -- -- 77
2020-01-10 10:00:00 2.1 12 Oeste 20 Oeste 0 -- -- 82
2020-01-10 09:00:00 1.1 8 Oeste 13 Oeste 0 -- -- 89
2020-01-10 08:00:00 1.7 7 Noroeste 13 Noroeste 0 -- -- 89
2020-01-10 07:00:00 2 4 Noroeste 18 Norte 0 -- -- 88
2020-01-10 06:00:00 2.9 5 Norte 19 Noroeste 0 -- -- 88
2020-01-10 05:00:00 3.5 9 Noroeste 26 Noroeste 0 -- -- 82
2020-01-10 04:00:00 4 15 Noroeste 35 Oeste 0 -- -- 79
2020-01-10 03:00:00 5.2 9 Oeste 21 Oeste 0 -- -- 81
2020-01-10 02:00:00 5.4 8 Oeste 16 Oeste 0 -- -- 80
2020-01-10 01:00:00 4.7 8 Oeste 15 Oeste 0 -- -- 79
2020-01-10 00:00:00 3.8 7 Oeste 15 Noroeste 0 -- -- 80
2020-01-09 23:00:00 4.8 8 Oeste 15 Oeste 0 -- -- 76
2020-01-09 22:00:00 5.8 8 Oeste 22 Oeste 0 -- -- 72
2020-01-09 21:00:00 7.1 13 Oeste 23 Oeste 0 -- -- 67
2020-01-09 20:00:00 6.4 8 Oeste 19 Oeste 0 -- -- 67
2020-01-09 19:00:00 7.4 13 Oeste 19 Oeste 0 -- -- 65
2020-01-09 18:00:00 9.5 8 Noroeste 22 Oeste 0 -- -- 60
2020-01-09 17:00:00 12.7 13 Oeste 22 Oeste 0 -- -- 50
2020-01-09 16:00:00 13.2 7 Sudeste 18 Oeste 0 -- -- 48
2020-01-09 15:00:00 14 9 Oeste 19 Oeste 0 -- -- 45
2020-01-09 14:00:00 12.5 10 Oeste 26 Noroeste 0 -- -- 51
2020-01-09 13:00:00 12 12 Noroeste 20 Noroeste 0 -- -- 50
2020-01-09 12:00:00 12 10 Oeste 17 Oeste 0 -- -- 50
2020-01-09 11:00:00 11.4 2 Nordeste 6 Sudoeste 0 -- -- 59
2020-01-09 10:00:00 5.3 4 Sudoeste 10 Oeste 0 -- -- 78
2020-01-09 09:00:00 1 8 Oeste 12 Oeste 0 -- -- 90
2020-01-09 08:00:00 -0.5 7 Oeste 9 Oeste 0 -- -- 93
2020-01-09 07:00:00 0.1 8 Oeste 12 Sudoeste 0 -- -- 91
2020-01-09 06:00:00 0.3 6 Oeste 10 Sudoeste 0 -- -- 90
2020-01-09 05:00:00 0.2 0 Calma 14 Oeste 0 -- -- 90
2020-01-09 04:00:00 1.3 10 Oeste 16 Oeste 0 -- -- 89
2020-01-09 03:00:00 0.8 6 Oeste 13 Oeste 0 -- -- 90
2020-01-09 02:00:00 0.9 9 Oeste 13 Oeste 0 -- -- 89
2020-01-09 01:00:00 1.2 6 Oeste 9 Sudoeste 0 -- -- 89
2020-01-09 00:00:00 2.1 0 Calma 3 Nordeste 0 -- -- 87
2020-01-08 23:00:00 2.4 2 Oeste 5 Oeste 0 -- -- 88
2020-01-08 22:00:00 2.3 3 Oeste 11 Oeste 0 -- -- 89
2020-01-08 21:00:00 2.2 7 Oeste 11 Oeste 0 -- -- 87
2020-01-08 20:00:00 3.5 2 Nordeste 4 Sudeste 0 -- -- 84
2020-01-08 19:00:00 3.9 0 Calma 6 Sudeste 0 -- -- 79
2020-01-08 18:00:00 7 4 Sur 12 Sudeste 0 -- -- 71
2020-01-08 17:00:00 11.4 6 Sudeste 13 Este 0 -- -- 58
2020-01-08 16:00:00 12 9 Este 15 Este 0 -- -- 58
2020-01-08 15:00:00 11.9 9 Este 18 Este 0 -- -- 55
2020-01-08 14:00:00 11.7 8 Este 18 Nordeste 0 -- -- 54
2020-01-08 13:00:00 11.2 11 Este 17 Este 0 -- -- 58
2020-01-08 12:00:00 13.1 3 Sudeste 8 Nordeste 0 -- -- 43
2020-01-08 11:00:00 10 5 Oeste 10 Sudoeste 0 -- -- 41
2020-01-08 10:00:00 6.6 0 Calma 5 Oeste 0 -- -- 55
2020-01-08 09:00:00 1.2 0 Calma 9 Sudoeste 0 -- -- 70
2020-01-08 08:00:00 2.6 6 Oeste 12 Oeste 0 -- -- 66
2020-01-08 07:00:00 4 8 Oeste 12 Oeste 0 -- -- 58
2020-01-08 06:00:00 2.9 7 Oeste 13 Oeste 0 -- -- 59
2020-01-08 05:00:00 3 8 Oeste 16 Oeste 0 -- -- 55
2020-01-08 04:00:00 4.5 13 Oeste 21 Oeste 0 -- -- 47
2020-01-08 03:00:00 5.2 12 Oeste 19 Oeste 0 -- -- 47
2020-01-08 02:00:00 3.4 4 Sudoeste 20 Oeste 0 -- -- 49
2020-01-08 01:00:00 4.9 15 Oeste 21 Oeste 0 -- -- 40
2020-01-08 00:00:00 4.1 0 Calma 19 Oeste 0 -- -- 43
2020-01-07 23:00:00 4.3 10 Oeste 17 Oeste 0 -- -- 45
2020-01-07 22:00:00 3.4 4 Oeste 17 Oeste 0 -- -- 48
2020-01-07 21:00:00 6.3 13 Oeste 18 Oeste 0 -- -- 38
2020-01-07 20:00:00 4.2 8 Oeste 15 Oeste 0 -- -- 42
2020-01-07 19:00:00 5.3 11 Oeste 18 Oeste 0 -- -- 39
2020-01-07 18:00:00 7.7 13 Oeste 16 Oeste 0 -- -- 36
2020-01-07 17:00:00 14.5 9 Oeste 18 Oeste 0 -- -- 28
2020-01-07 16:00:00 15 12 Oeste 21 Oeste 0 -- -- 26
2020-01-07 15:00:00 15 14 Noroeste 25 Oeste 0 -- -- 21
2020-01-07 14:00:00 13.9 14 Oeste 22 Oeste 0 -- -- 27
2020-01-07 13:00:00 13.1 13 Oeste 20 Oeste 0 -- -- 28
2020-01-07 12:00:00 11.8 11 Oeste 20 Oeste 0 -- -- 28
2020-01-07 11:00:00 9.9 10 Oeste 18 Oeste 0 -- -- 33
2020-01-07 10:00:00 6.4 10 Oeste 19 Oeste 0 -- -- 43
2020-01-07 09:00:00 1.3 8 Oeste 19 Oeste 0 -- -- 58
2020-01-07 08:00:00 0.9 12 Oeste 15 Oeste 0 -- -- 60
2020-01-07 07:00:00 1.7 6 Oeste 12 Oeste 0 -- -- 58
2020-01-07 06:00:00 0.7 5 Oeste 15 Oeste 0 -- -- 66
2020-01-07 05:00:00 1.7 10 Oeste 17 Oeste 0 -- -- 63
2020-01-07 04:00:00 0.7 8 Oeste 14 Oeste 0 -- -- 69
2020-01-07 03:00:00 1.5 6 Oeste 14 Oeste 0 -- -- 66
2020-01-07 02:00:00 0.8 11 Oeste 18 Oeste 0 -- -- 68
2020-01-07 01:00:00 1.7 4 Oeste 15 Oeste 0 -- -- 66
2020-01-07 00:00:00 2.1 10 Oeste 14 Oeste 0 -- -- 63
2020-01-06 23:00:00 1.7 6 Oeste 10 Oeste 0 -- -- 67
2020-01-06 22:00:00 1.5 6 Oeste 12 Oeste 0 -- -- 66
2020-01-06 21:00:00 3 7 Sudoeste 13 Oeste 0 -- -- 59
2020-01-06 20:00:00 4 5 Oeste 10 Oeste 0 -- -- 55
2020-01-06 19:00:00 5.6 8 Oeste 10 Sudoeste 0 -- -- 49
2020-01-06 18:00:00 8.8 6 Oeste 14 Oeste 0 -- -- 38
2020-01-06 17:00:00 13.6 11 Oeste 20 Oeste 0 -- -- 29
2020-01-06 16:00:00 14.2 13 Oeste 29 Noroeste 0 -- -- 29
2020-01-06 15:00:00 14.5 14 Oeste 23 Oeste 0 -- -- 24
2020-01-06 14:00:00 13.8 11 Oeste 22 Oeste 0 -- -- 32
2020-01-06 13:00:00 13 12 Oeste 22 Sudoeste 0 -- -- 30
2020-01-06 12:00:00 11 15 Oeste 22 Oeste 0 -- -- 31
2020-01-06 11:00:00 10.8 10 Oeste 18 Oeste 0 -- -- 29
2020-01-06 10:00:00 9.3 8 Oeste 15 Oeste 0 -- -- 28